sensor_id;sensor_type;location;lat;lon;timestamp;P1;durP1;ratioP1;P2;durP2;ratioP2
79122;SDS011;68526;44.600;26.032;2023-10-19T00:00:03;23.20;;;16.02;;
79122;SDS011;68526;44.600;26.032;2023-10-19T00:00:34;21.02;;;15.35;;
79122;SDS011;68526;44.600;26.032;2023-10-19T00:00:54;22.10;;;15.73;;
79122;SDS011;68526;44.600;26.032;2023-10-19T00:01:11;22.70;;;16.00;;
79122;SDS011;68526;44.600;26.032;2023-10-19T00:01:27;22.27;;;15.70;;
79122;SDS011;68526;44.600;26.032;2023-10-19T00:01:43;22.17;;;15.65;;
79122;SDS011;68526;44.600;26.032;2023-10-19T00:01:59;20.95;;;16.15;;
79122;SDS011;68526;44.600;26.032;2023-10-19T00:02:15;21.55;;;16.08;;
79122;SDS011;68526;44.600;26.032;2023-10-19T00:02:34;20.88;;;15.27;;
79122;SDS011;68526;44.600;26.032;2023-10-19T00:02:52;21.17;;;15.75;;
79122;SDS011;68526;44.600;26.032;2023-10-19T00:03:07;21.60;;;15.85;;
79122;SDS011;68526;44.600;26.032;2023-10-19T00:03:23;21.95;;;15.90;;
79122;SDS011;68526;44.600;26.032;2023-10-19T00:03:40;23.73;;;15.88;;
79122;SDS011;68526;44.600;26.032;2023-10-19T00:03:56;22.08;;;15.55;;
79122;SDS011;68526;44.600;26.032;2023-10-19T00:04:12;21.13;;;15.23;;
79122;SDS011;68526;44.600;26.032;2023-10-19T00:04:27;23.07;;;15.03;;
79122;SDS011;68526;44.600;26.032;2023-10-19T00:04:47;20.92;;;15.35;;
79122;SDS011;68526;44.600;26.032;2023-10-19T00:05:03;19.60;;;15.13;;
79122;SDS011;68526;44.600;26.032;2023-10-19T00:05:24;22.05;;;16.60;;
79122;SDS011;68526;44.600;26.032;2023-10-19T00:05:41;23.45;;;16.23;;
79122;SDS011;68526;44.600;26.032;2023-10-19T00:05:57;21.90;;;15.35;;
79122;SDS011;68526;44.600;26.032;2023-10-19T00:06:13;22.63;;;15.60;;
79122;SDS011;68526;44.600;26.032;2023-10-19T00:06:29;21.93;;;15.67;;
79122;SDS011;68526;44.600;26.032;2023-10-19T00:06:46;21.85;;;15.55;;
79122;SDS011;68526;44.600;26.032;2023-10-19T00:07:03;24.75;;;16.75;;
79122;SDS011;68526;44.600;26.032;2023-10-19T00:07:21;23.55;;;16.67;;
79122;SDS011;68526;44.600;26.032;2023-10-19T00:07:38;23.10;;;15.85;;
79122;SDS011;68526;44.600;26.032;2023-10-19T00:07:54;24.42;;;16.67;;
79122;SDS011;68526;44.600;26.032;2023-10-19T00:08:12;21.08;;;15.70;;
79122;SDS011;68526;44.600;26.032;2023-10-19T00:08:35;21.75;;;15.38;;
79122;SDS011;68526;44.600;26.032;2023-10-19T00:08:55;21.10;;;15.02;;
79122;SDS011;68526;44.600;26.032;2023-10-19T00:09:14;21.52;;;15.63;;
79122;SDS011;68526;44.600;26.032;2023-10-19T00:09:31;21.45;;;15.63;;
79122;SDS011;68526;44.600;26.032;2023-10-19T00:09:52;21.15;;;15.88;;
79122;SDS011;68526;44.600;26.032;2023-10-19T00:10:09;22.63;;;15.98;;
79122;SDS011;68526;44.600;26.032;2023-10-19T00:10:25;22.00;;;15.13;;
79122;SDS011;68526;44.600;26.032;2023-10-19T00:10:45;22.83;;;15.98;;
79122;SDS011;68526;44.600;26.032;2023-10-19T00:11:03;22.35;;;15.55;;
79122;SDS011;68526;44.600;26.032;2023-10-19T00:11:23;23.27;;;14.98;;
79122;SDS011;68526;44.600;26.032;2023-10-19T00:11:41;22.15;;;15.23;;
79122;SDS011;68526;44.600;26.032;2023-10-19T00:11:57;23.23;;;15.68;;
79122;SDS011;68526;44.600;26.032;2023-10-19T00:12:13;23.83;;;15.55;;
79122;SDS011;68526;44.600;26.032;2023-10-19T00:12:31;24.08;;;15.90;;
79122;SDS011;68526;44.600;26.032;2023-10-19T00:12:47;24.23;;;15.68;;
79122;SDS011;68526;44.600;26.032;2023-10-19T00:13:13;21.60;;;14.85;;
79122;SDS011;68526;44.600;26.032;2023-10-19T00:13:30;21.60;;;15.20;;
79122;SDS011;68526;44.600;26.032;2023-10-19T00:13:46;23.05;;;15.25;;
79122;SDS011;68526;44.600;26.032;2023-10-19T00:14:05;21.27;;;15.00;;
79122;SDS011;68526;44.600;26.032;2023-10-19T00:14:30;23.85;;;15.77;;
79122;SDS011;68526;44.600;26.032;2023-10-19T00:14:47;22.80;;;15.15;;
79122;SDS011;68526;44.600;26.032;2023-10-19T00:15:05;20.95;;;14.60;;
79122;SDS011;68526;44.600;26.032;2023-10-19T00:15:22;20.98;;;15.07;;
79122;SDS011;68526;44.600;26.032;2023-10-19T00:15:39;20.55;;;15.27;;
79122;SDS011;68526;44.600;26.032;2023-10-19T00:16:02;21.80;;;14.75;;
79122;SDS011;68526;44.600;26.032;2023-10-19T00:16:26;20.57;;;14.80;;
79122;SDS011;68526;44.600;26.032;2023-10-19T00:16:44;20.20;;;15.10;;
79122;SDS011;68526;44.600;26.032;2023-10-19T00:17:06;21.13;;;14.85;;
79122;SDS011;68526;44.600;26.032;2023-10-19T00:17:26;21.42;;;15.05;;
79122;SDS011;68526;44.600;26.032;2023-10-19T00:17:42;21.38;;;15.23;;
79122;SDS011;68526;44.600;26.032;2023-10-19T00:18:00;22.08;;;15.32;;
79122;SDS011;68526;44.600;26.032;2023-10-19T00:18:28;21.33;;;14.38;;
79122;SDS011;68526;44.600;26.032;2023-10-19T00:18:47;20.88;;;14.50;;
79122;SDS011;68526;44.600;26.032;2023-10-19T00:19:04;22.25;;;15.40;;
79122;SDS011;68526;44.600;26.032;2023-10-19T00:19:20;21.13;;;15.55;;
79122;SDS011;68526;44.600;26.032;2023-10-19T00:19:36;20.10;;;14.88;;
79122;SDS011;68526;44.600;26.032;2023-10-19T00:19:54;21.55;;;14.93;;
79122;SDS011;68526;44.600;26.032;2023-10-19T00:20:22;20.58;;;14.75;;
79122;SDS011;68526;44.600;26.032;2023-10-19T00:20:52;20.30;;;13.98;;
79122;SDS011;68526;44.600;26.032;2023-10-19T00:21:14;18.85;;;14.20;;
79122;SDS011;68526;44.600;26.032;2023-10-19T00:21:35;20.10;;;14.18;;
79122;SDS011;68526;44.600;26.032;2023-10-19T00:22:05;18.35;;;14.20;;
79122;SDS011;68526;44.600;26.032;2023-10-19T00:22:24;20.77;;;14.77;;
79122;SDS011;68526;44.600;26.032;2023-10-19T00:22:41;20.95;;;14.88;;
79122;SDS011;68526;44.600;26.032;2023-10-19T00:22:57;19.83;;;14.25;;
79122;SDS011;68526;44.600;26.032;2023-10-19T00:23:13;20.70;;;14.33;;
79122;SDS011;68526;44.600;26.032;2023-10-19T00:23:33;21.15;;;14.55;;
79122;SDS011;68526;44.600;26.032;2023-10-19T00:23:50;22.02;;;15.30;;
79122;SDS011;68526;44.600;26.032;2023-10-19T00:24:11;20.75;;;14.70;;
79122;SDS011;68526;44.600;26.032;2023-10-19T00:24:32;20.83;;;15.10;;
79122;SDS011;68526;44.600;26.032;2023-10-19T00:24:48;20.17;;;14.52;;
79122;SDS011;68526;44.600;26.032;2023-10-19T00:25:05;19.67;;;14.48;;
79122;SDS011;68526;44.600;26.032;2023-10-19T00:25:23;21.58;;;14.68;;
79122;SDS011;68526;44.600;26.032;2023-10-19T00:25:39;21.40;;;14.27;;
79122;SDS011;68526;44.600;26.032;2023-10-19T00:25:56;19.98;;;14.48;;
79122;SDS011;68526;44.600;26.032;2023-10-19T00:26:12;19.85;;;14.48;;
79122;SDS011;68526;44.600;26.032;2023-10-19T00:26:32;21.00;;;14.52;;
79122;SDS011;68526;44.600;26.032;2023-10-19T00:26:48;21.27;;;14.60;;
79122;SDS011;68526;44.600;26.032;2023-10-19T00:27:04;20.23;;;14.32;;
79122;SDS011;68526;44.600;26.032;2023-10-19T00:27:30;19.38;;;14.00;;
79122;SDS011;68526;44.600;26.032;2023-10-19T00:27:46;20.20;;;14.02;;
79122;SDS011;68526;44.600;26.032;2023-10-19T00:28:03;21.33;;;14.40;;
79122;SDS011;68526;44.600;26.032;2023-10-19T00:28:20;20.45;;;14.30;;
79122;SDS011;68526;44.600;26.032;2023-10-19T00:28:37;20.35;;;14.70;;
79122;SDS011;68526;44.600;26.032;2023-10-19T00:28:54;20.03;;;14.53;;
79122;SDS011;68526;44.600;26.032;2023-10-19T00:29:10;20.30;;;14.35;;
79122;SDS011;68526;44.600;26.032;2023-10-19T00:29:45;21.55;;;14.18;;
79122;SDS011;68526;44.600;26.032;2023-10-19T00:30:04;20.50;;;14.27;;
79122;SDS011;68526;44.600;26.032;2023-10-19T00:30:23;19.77;;;14.40;;
79122;SDS011;68526;44.600;26.032;2023-10-19T00:30:45;20.17;;;14.23;;
79122;SDS011;68526;44.600;26.032;2023-10-19T00:31:03;19.67;;;13.70;;
79122;SDS011;68526;44.600;26.032;2023-10-19T00:31:23;20.65;;;14.52;;
79122;SDS011;68526;44.600;26.032;2023-10-19T00:31:39;21.23;;;15.02;;
79122;SDS011;68526;44.600;26.032;2023-10-19T00:31:56;21.63;;;14.93;;
79122;SDS011;68526;44.600;26.032;2023-10-19T00:32:13;22.20;;;14.40;;
79122;SDS011;68526;44.600;26.032;2023-10-19T00:32:29;22.92;;;14.63;;
79122;SDS011;68526;44.600;26.032;2023-10-19T00:32:45;20.30;;;14.60;;
79122;SDS011;68526;44.600;26.032;2023-10-19T00:33:03;19.35;;;14.23;;
79122;SDS011;68526;44.600;26.032;2023-10-19T00:33:19;19.77;;;14.15;;
79122;SDS011;68526;44.600;26.032;2023-10-19T00:33:36;20.30;;;13.98;;
79122;SDS011;68526;44.600;26.032;2023-10-19T00:33:54;21.80;;;14.68;;
79122;SDS011;68526;44.600;26.032;2023-10-19T00:34:10;21.90;;;14.82;;
79122;SDS011;68526;44.600;26.032;2023-10-19T00:34:28;20.63;;;15.15;;
79122;SDS011;68526;44.600;26.032;2023-10-19T00:34:44;20.60;;;14.93;;
79122;SDS011;68526;44.600;26.032;2023-10-19T00:35:07;20.48;;;14.65;;
79122;SDS011;68526;44.600;26.032;2023-10-19T00:35:36;18.88;;;14.13;;
79122;SDS011;68526;44.600;26.032;2023-10-19T00:35:59;19.77;;;13.63;;
79122;SDS011;68526;44.600;26.032;2023-10-19T00:36:21;20.05;;;14.27;;
79122;SDS011;68526;44.600;26.032;2023-10-19T00:36:39;19.83;;;14.68;;
79122;SDS011;68526;44.600;26.032;2023-10-19T00:36:55;19.23;;;13.80;;
79122;SDS011;68526;44.600;26.032;2023-10-19T00:37:11;18.33;;;13.77;;
79122;SDS011;68526;44.600;26.032;2023-10-19T00:37:34;19.53;;;14.47;;
79122;SDS011;68526;44.600;26.032;2023-10-19T00:37:58;19.20;;;13.98;;
79122;SDS011;68526;44.600;26.032;2023-10-19T00:38:34;19.77;;;13.85;;
79122;SDS011;68526;44.600;26.032;2023-10-19T00:39:03;22.73;;;15.07;;
79122;SDS011;68526;44.600;26.032;2023-10-19T00:39:29;20.55;;;14.40;;
79122;SDS011;68526;44.600;26.032;2023-10-19T00:39:55;20.88;;;14.90;;
79122;SDS011;68526;44.600;26.032;2023-10-19T00:40:11;20.17;;;14.23;;
79122;SDS011;68526;44.600;26.032;2023-10-19T00:40:31;17.95;;;13.73;;
79122;SDS011;68526;44.600;26.032;2023-10-19T00:40:50;18.92;;;14.23;;
79122;SDS011;68526;44.600;26.032;2023-10-19T00:41:09;19.77;;;14.55;;
79122;SDS011;68526;44.600;26.032;2023-10-19T00:41:34;21.02;;;14.57;;
79122;SDS011;68526;44.600;26.032;2023-10-19T00:41:52;21.00;;;14.40;;
79122;SDS011;68526;44.600;26.032;2023-10-19T00:42:12;20.23;;;13.82;;
79122;SDS011;68526;44.600;26.032;2023-10-19T00:42:30;21.23;;;14.60;;
79122;SDS011;68526;44.600;26.032;2023-10-19T00:42:46;22.75;;;14.90;;
79122;SDS011;68526;44.600;26.032;2023-10-19T00:43:08;21.00;;;14.07;;
79122;SDS011;68526;44.600;26.032;2023-10-19T00:43:28;19.48;;;14.02;;
79122;SDS011;68526;44.600;26.032;2023-10-19T00:43:48;19.50;;;14.40;;
79122;SDS011;68526;44.600;26.032;2023-10-19T00:44:07;21.52;;;14.38;;
79122;SDS011;68526;44.600;26.032;2023-10-19T00:44:26;20.25;;;14.50;;
79122;SDS011;68526;44.600;26.032;2023-10-19T00:44:51;21.30;;;14.10;;
79122;SDS011;68526;44.600;26.032;2023-10-19T00:45:16;22.05;;;14.88;;
79122;SDS011;68526;44.600;26.032;2023-10-19T00:45:39;20.50;;;14.17;;
79122;SDS011;68526;44.600;26.032;2023-10-19T00:45:56;19.48;;;13.80;;
79122;SDS011;68526;44.600;26.032;2023-10-19T00:46:13;19.35;;;13.93;;
79122;SDS011;68526;44.600;26.032;2023-10-19T00:46:31;21.90;;;14.73;;
79122;SDS011;68526;44.600;26.032;2023-10-19T00:46:47;21.75;;;14.50;;
79122;SDS011;68526;44.600;26.032;2023-10-19T00:47:07;21.10;;;14.10;;
79122;SDS011;68526;44.600;26.032;2023-10-19T00:47:28;20.45;;;14.02;;
79122;SDS011;68526;44.600;26.032;2023-10-19T00:47:54;20.00;;;14.00;;
79122;SDS011;68526;44.600;26.032;2023-10-19T00:48:13;20.83;;;14.02;;
79122;SDS011;68526;44.600;26.032;2023-10-19T00:48:29;20.27;;;13.48;;
79122;SDS011;68526;44.600;26.032;2023-10-19T00:48:48;17.02;;;13.18;;
79122;SDS011;68526;44.600;26.032;2023-10-19T00:49:05;20.23;;;14.23;;
79122;SDS011;68526;44.600;26.032;2023-10-19T00:49:22;20.90;;;14.43;;
79122;SDS011;68526;44.600;26.032;2023-10-19T00:49:38;19.13;;;13.80;;
79122;SDS011;68526;44.600;26.032;2023-10-19T00:49:55;19.92;;;13.68;;
79122;SDS011;68526;44.600;26.032;2023-10-19T00:50:11;20.52;;;13.40;;
79122;SDS011;68526;44.600;26.032;2023-10-19T00:50:31;19.52;;;13.30;;
79122;SDS011;68526;44.600;26.032;2023-10-19T00:50:47;19.48;;;13.55;;
79122;SDS011;68526;44.600;26.032;2023-10-19T00:51:07;21.83;;;14.05;;
79122;SDS011;68526;44.600;26.032;2023-10-19T00:51:29;21.17;;;14.35;;
79122;SDS011;68526;44.600;26.032;2023-10-19T00:51:58;19.20;;;13.77;;
79122;SDS011;68526;44.600;26.032;2023-10-19T00:52:18;20.45;;;14.18;;
79122;SDS011;68526;44.600;26.032;2023-10-19T00:52:35;22.45;;;14.45;;
79122;SDS011;68526;44.600;26.032;2023-10-19T00:53:00;18.15;;;13.50;;
79122;SDS011;68526;44.600;26.032;2023-10-19T00:53:22;17.75;;;13.70;;
79122;SDS011;68526;44.600;26.032;2023-10-19T00:53:38;17.43;;;13.97;;
79122;SDS011;68526;44.600;26.032;2023-10-19T00:53:54;18.85;;;13.18;;
79122;SDS011;68526;44.600;26.032;2023-10-19T00:54:13;19.90;;;13.57;;
79122;SDS011;68526;44.600;26.032;2023-10-19T00:54:41;19.08;;;13.45;;
79122;SDS011;68526;44.600;26.032;2023-10-19T00:55:06;18.90;;;13.52;;
79122;SDS011;68526;44.600;26.032;2023-10-19T00:55:23;18.35;;;13.63;;
79122;SDS011;68526;44.600;26.032;2023-10-19T00:55:42;18.98;;;14.10;;
79122;SDS011;68526;44.600;26.032;2023-10-19T00:56:01;18.40;;;13.43;;
79122;SDS011;68526;44.600;26.032;2023-10-19T00:56:20;18.60;;;13.23;;
79122;SDS011;68526;44.600;26.032;2023-10-19T00:56:38;19.67;;;13.48;;
79122;SDS011;68526;44.600;26.032;2023-10-19T00:57:01;18.92;;;13.52;;
79122;SDS011;68526;44.600;26.032;2023-10-19T00:57:21;20.98;;;14.23;;
79122;SDS011;68526;44.600;26.032;2023-10-19T00:57:47;19.67;;;13.60;;
79122;SDS011;68526;44.600;26.032;2023-10-19T00:58:05;19.85;;;13.60;;
79122;SDS011;68526;44.600;26.032;2023-10-19T00:58:24;19.75;;;13.18;;
79122;SDS011;68526;44.600;26.032;2023-10-19T00:58:45;18.77;;;13.15;;
79122;SDS011;68526;44.600;26.032;2023-10-19T00:59:08;21.00;;;13.63;;
79122;SDS011;68526;44.600;26.032;2023-10-19T00:59:29;19.52;;;14.05;;
79122;SDS011;68526;44.600;26.032;2023-10-19T00:59:46;18.58;;;13.60;;
79122;SDS011;68526;44.600;26.032;2023-10-19T01:00:04;18.77;;;13.57;;
79122;SDS011;68526;44.600;26.032;2023-10-19T01:00:26;18.48;;;13.52;;
79122;SDS011;68526;44.600;26.032;2023-10-19T01:00:49;20.17;;;13.57;;
79122;SDS011;68526;44.600;26.032;2023-10-19T01:01:05;19.70;;;13.70;;
79122;SDS011;68526;44.600;26.032;2023-10-19T01:01:23;18.52;;;13.60;;
79122;SDS011;68526;44.600;26.032;2023-10-19T01:01:43;19.15;;;14.52;;
79122;SDS011;68526;44.600;26.032;2023-10-19T01:02:03;19.02;;;14.02;;
79122;SDS011;68526;44.600;26.032;2023-10-19T01:02:31;19.52;;;13.40;;
79122;SDS011;68526;44.600;26.032;2023-10-19T01:02:48;18.57;;;12.80;;
79122;SDS011;68526;44.600;26.032;2023-10-19T01:03:08;18.90;;;13.00;;
79122;SDS011;68526;44.600;26.032;2023-10-19T01:03:26;18.65;;;13.27;;
79122;SDS011;68526;44.600;26.032;2023-10-19T01:03:47;20.10;;;13.82;;
79122;SDS011;68526;44.600;26.032;2023-10-19T01:04:07;19.45;;;13.43;;
79122;SDS011;68526;44.600;26.032;2023-10-19T01:04:23;18.90;;;13.30;;
79122;SDS011;68526;44.600;26.032;2023-10-19T01:04:47;18.38;;;13.02;;
79122;SDS011;68526;44.600;26.032;2023-10-19T01:05:11;19.17;;;12.88;;
79122;SDS011;68526;44.600;26.032;2023-10-19T01:05:28;17.63;;;12.93;;
79122;SDS011;68526;44.600;26.032;2023-10-19T01:05:50;19.00;;;13.15;;
79122;SDS011;68526;44.600;26.032;2023-10-19T01:06:06;19.60;;;13.18;;
79122;SDS011;68526;44.600;26.032;2023-10-19T01:06:25;18.98;;;12.63;;
79122;SDS011;68526;44.600;26.032;2023-10-19T01:06:46;18.10;;;13.38;;
79122;SDS011;68526;44.600;26.032;2023-10-19T01:07:16;20.10;;;12.73;;
79122;SDS011;68526;44.600;26.032;2023-10-19T01:07:37;19.67;;;13.15;;
79122;SDS011;68526;44.600;26.032;2023-10-19T01:07:53;19.05;;;13.00;;
79122;SDS011;68526;44.600;26.032;2023-10-19T01:08:13;17.40;;;12.73;;
79122;SDS011;68526;44.600;26.032;2023-10-19T01:08:38;18.63;;;13.60;;
79122;SDS011;68526;44.600;26.032;2023-10-19T01:08:59;17.60;;;13.43;;
79122;SDS011;68526;44.600;26.032;2023-10-19T01:09:17;17.88;;;13.13;;
79122;SDS011;68526;44.600;26.032;2023-10-19T01:09:35;18.90;;;13.23;;
79122;SDS011;68526;44.600;26.032;2023-10-19T01:09:51;18.35;;;12.38;;
79122;SDS011;68526;44.600;26.032;2023-10-19T01:10:11;16.52;;;12.02;;
79122;SDS011;68526;44.600;26.032;2023-10-19T01:10:34;18.50;;;12.60;;
79122;SDS011;68526;44.600;26.032;2023-10-19T01:10:51;17.02;;;12.70;;
79122;SDS011;68526;44.600;26.032;2023-10-19T01:11:09;17.73;;;12.88;;
79122;SDS011;68526;44.600;26.032;2023-10-19T01:11:26;19.27;;;12.88;;
79122;SDS011;68526;44.600;26.032;2023-10-19T01:11:43;18.90;;;12.52;;
79122;SDS011;68526;44.600;26.032;2023-10-19T01:12:00;18.10;;;12.45;;
79122;SDS011;68526;44.600;26.032;2023-10-19T01:12:18;18.65;;;12.32;;
79122;SDS011;68526;44.600;26.032;2023-10-19T01:12:40;17.88;;;12.90;;
79122;SDS011;68526;44.600;26.032;2023-10-19T01:12:58;18.27;;;13.20;;
79122;SDS011;68526;44.600;26.032;2023-10-19T01:13:14;17.00;;;12.55;;
79122;SDS011;68526;44.600;26.032;2023-10-19T01:13:31;16.52;;;12.50;;
79122;SDS011;68526;44.600;26.032;2023-10-19T01:13:49;19.65;;;12.93;;
79122;SDS011;68526;44.600;26.032;2023-10-19T01:14:19;20.30;;;13.18;;
79122;SDS011;68526;44.600;26.032;2023-10-19T01:14:36;17.90;;;12.40;;
79122;SDS011;68526;44.600;26.032;2023-10-19T01:15:02;17.35;;;13.18;;
79122;SDS011;68526;44.600;26.032;2023-10-19T01:15:25;18.75;;;13.48;;
79122;SDS011;68526;44.600;26.032;2023-10-19T01:15:44;20.45;;;13.40;;
79122;SDS011;68526;44.600;26.032;2023-10-19T01:16:04;20.27;;;12.95;;
79122;SDS011;68526;44.600;26.032;2023-10-19T01:16:20;19.25;;;12.68;;
79122;SDS011;68526;44.600;26.032;2023-10-19T01:16:36;18.45;;;12.65;;
79122;SDS011;68526;44.600;26.032;2023-10-19T01:16:52;18.65;;;12.95;;
79122;SDS011;68526;44.600;26.032;2023-10-19T01:17:11;19.25;;;13.23;;
79122;SDS011;68526;44.600;26.032;2023-10-19T01:17:28;20.10;;;13.35;;
79122;SDS011;68526;44.600;26.032;2023-10-19T01:17:47;18.17;;;12.90;;
79122;SDS011;68526;44.600;26.032;2023-10-19T01:18:08;16.63;;;12.73;;
79122;SDS011;68526;44.600;26.032;2023-10-19T01:18:28;17.50;;;13.03;;
79122;SDS011;68526;44.600;26.032;2023-10-19T01:18:48;18.80;;;13.13;;
79122;SDS011;68526;44.600;26.032;2023-10-19T01:19:08;18.58;;;12.57;;
79122;SDS011;68526;44.600;26.032;2023-10-19T01:19:26;17.90;;;12.40;;
79122;SDS011;68526;44.600;26.032;2023-10-19T01:19:42;16.77;;;12.25;;
79122;SDS011;68526;44.600;26.032;2023-10-19T01:19:58;16.67;;;12.23;;
79122;SDS011;68526;44.600;26.032;2023-10-19T01:20:14;16.15;;;11.60;;
79122;SDS011;68526;44.600;26.032;2023-10-19T01:20:34;17.05;;;11.73;;
79122;SDS011;68526;44.600;26.032;2023-10-19T01:21:03;17.25;;;12.88;;
79122;SDS011;68526;44.600;26.032;2023-10-19T01:21:22;18.33;;;12.85;;
79122;SDS011;68526;44.600;26.032;2023-10-19T01:21:42;20.37;;;13.33;;
79122;SDS011;68526;44.600;26.032;2023-10-19T01:22:00;21.20;;;13.32;;
79122;SDS011;68526;44.600;26.032;2023-10-19T01:22:19;20.15;;;13.50;;
79122;SDS011;68526;44.600;26.032;2023-10-19T01:22:35;18.65;;;13.48;;
79122;SDS011;68526;44.600;26.032;2023-10-19T01:22:53;18.13;;;12.73;;
79122;SDS011;68526;44.600;26.032;2023-10-19T01:23:24;17.17;;;12.50;;
79122;SDS011;68526;44.600;26.032;2023-10-19T01:23:43;18.98;;;12.73;;
79122;SDS011;68526;44.600;26.032;2023-10-19T01:24:01;18.60;;;12.73;;
79122;SDS011;68526;44.600;26.032;2023-10-19T01:24:21;18.63;;;12.77;;
79122;SDS011;68526;44.600;26.032;2023-10-19T01:24:49;17.98;;;12.75;;
79122;SDS011;68526;44.600;26.032;2023-10-19T01:25:05;18.17;;;12.77;;
79122;SDS011;68526;44.600;26.032;2023-10-19T01:25:25;18.00;;;12.88;;
79122;SDS011;68526;44.600;26.032;2023-10-19T01:25:50;17.40;;;12.32;;
79122;SDS011;68526;44.600;26.032;2023-10-19T01:26:14;19.40;;;12.70;;
79122;SDS011;68526;44.600;26.032;2023-10-19T01:26:37;19.25;;;13.30;;
79122;SDS011;68526;44.600;26.032;2023-10-19T01:26:53;18.45;;;13.38;;
79122;SDS011;68526;44.600;26.032;2023-10-19T01:27:09;17.02;;;13.00;;
79122;SDS011;68526;44.600;26.032;2023-10-19T01:27:26;18.98;;;13.52;;
79122;SDS011;68526;44.600;26.032;2023-10-19T01:27:44;18.75;;;13.23;;
79122;SDS011;68526;44.600;26.032;2023-10-19T01:28:01;16.83;;;12.68;;
79122;SDS011;68526;44.600;26.032;2023-10-19T01:28:22;15.57;;;11.95;;
79122;SDS011;68526;44.600;26.032;2023-10-19T01:28:40;16.08;;;12.77;;
79122;SDS011;68526;44.600;26.032;2023-10-19T01:29:03;18.48;;;13.23;;
79122;SDS011;68526;44.600;26.032;2023-10-19T01:29:28;20.10;;;13.40;;
79122;SDS011;68526;44.600;26.032;2023-10-19T01:29:44;19.73;;;13.23;;
79122;SDS011;68526;44.600;26.032;2023-10-19T01:29:59;19.92;;;13.23;;
79122;SDS011;68526;44.600;26.032;2023-10-19T01:30:18;17.67;;;12.35;;
79122;SDS011;68526;44.600;26.032;2023-10-19T01:30:34;17.73;;;12.18;;
79122;SDS011;68526;44.600;26.032;2023-10-19T01:30:51;18.85;;;12.82;;
79122;SDS011;68526;44.600;26.032;2023-10-19T01:31:07;18.20;;;13.07;;
79122;SDS011;68526;44.600;26.032;2023-10-19T01:31:30;17.48;;;12.40;;
79122;SDS011;68526;44.600;26.032;2023-10-19T01:31:53;18.05;;;12.90;;
79122;SDS011;68526;44.600;26.032;2023-10-19T01:32:11;17.13;;;12.70;;
79122;SDS011;68526;44.600;26.032;2023-10-19T01:32:30;17.92;;;12.77;;
79122;SDS011;68526;44.600;26.032;2023-10-19T01:32:46;18.77;;;12.95;;
79122;SDS011;68526;44.600;26.032;2023-10-19T01:33:02;18.97;;;13.13;;
79122;SDS011;68526;44.600;26.032;2023-10-19T01:33:19;20.87;;;13.60;;
79122;SDS011;68526;44.600;26.032;2023-10-19T01:33:36;21.38;;;13.70;;
79122;SDS011;68526;44.600;26.032;2023-10-19T01:33:52;19.40;;;13.00;;
79122;SDS011;68526;44.600;26.032;2023-10-19T01:34:11;19.45;;;12.80;;
79122;SDS011;68526;44.600;26.032;2023-10-19T01:34:26;18.85;;;12.93;;
79122;SDS011;68526;44.600;26.032;2023-10-19T01:34:42;19.10;;;12.90;;
79122;SDS011;68526;44.600;26.032;2023-10-19T01:34:58;19.33;;;12.85;;
79122;SDS011;68526;44.600;26.032;2023-10-19T01:35:14;19.90;;;12.77;;
79122;SDS011;68526;44.600;26.032;2023-10-19T01:35:30;20.80;;;13.02;;
79122;SDS011;68526;44.600;26.032;2023-10-19T01:36:06;18.40;;;12.45;;
79122;SDS011;68526;44.600;26.032;2023-10-19T01:36:27;17.67;;;12.68;;
79122;SDS011;68526;44.600;26.032;2023-10-19T01:36:47;17.60;;;12.65;;
79122;SDS011;68526;44.600;26.032;2023-10-19T01:37:05;18.85;;;12.70;;
79122;SDS011;68526;44.600;26.032;2023-10-19T01:37:21;18.70;;;12.77;;
79122;SDS011;68526;44.600;26.032;2023-10-19T01:37:36;19.40;;;13.40;;
79122;SDS011;68526;44.600;26.032;2023-10-19T01:37:54;19.50;;;13.55;;
79122;SDS011;68526;44.600;26.032;2023-10-19T01:38:10;19.38;;;13.30;;
79122;SDS011;68526;44.600;26.032;2023-10-19T01:38:26;19.43;;;12.90;;
79122;SDS011;68526;44.600;26.032;2023-10-19T01:38:45;20.63;;;13.63;;
79122;SDS011;68526;44.600;26.032;2023-10-19T01:39:02;21.25;;;13.13;;
79122;SDS011;68526;44.600;26.032;2023-10-19T01:39:24;18.33;;;13.23;;
79122;SDS011;68526;44.600;26.032;2023-10-19T01:39:40;17.25;;;13.25;;
79122;SDS011;68526;44.600;26.032;2023-10-19T01:40:00;17.00;;;12.65;;
79122;SDS011;68526;44.600;26.032;2023-10-19T01:40:16;18.75;;;12.70;;
79122;SDS011;68526;44.600;26.032;2023-10-19T01:40:36;18.73;;;12.88;;
79122;SDS011;68526;44.600;26.032;2023-10-19T01:41:01;20.48;;;13.02;;
79122;SDS011;68526;44.600;26.032;2023-10-19T01:41:22;18.48;;;13.15;;
79122;SDS011;68526;44.600;26.032;2023-10-19T01:41:39;18.83;;;12.95;;
79122;SDS011;68526;44.600;26.032;2023-10-19T01:41:56;18.70;;;12.88;;
79122;SDS011;68526;44.600;26.032;2023-10-19T01:42:12;19.77;;;13.32;;
79122;SDS011;68526;44.600;26.032;2023-10-19T01:42:28;19.73;;;13.05;;
79122;SDS011;68526;44.600;26.032;2023-10-19T01:42:46;19.90;;;12.88;;
79122;SDS011;68526;44.600;26.032;2023-10-19T01:43:02;19.33;;;12.52;;
79122;SDS011;68526;44.600;26.032;2023-10-19T01:43:18;18.88;;;12.82;;
79122;SDS011;68526;44.600;26.032;2023-10-19T01:43:35;18.35;;;12.70;;
79122;SDS011;68526;44.600;26.032;2023-10-19T01:43:55;19.25;;;12.77;;
79122;SDS011;68526;44.600;26.032;2023-10-19T01:44:19;18.10;;;12.82;;
79122;SDS011;68526;44.600;26.032;2023-10-19T01:44:36;18.30;;;12.75;;
79122;SDS011;68526;44.600;26.032;2023-10-19T01:44:52;17.70;;;12.57;;
79122;SDS011;68526;44.600;26.032;2023-10-19T01:45:08;17.67;;;12.45;;
79122;SDS011;68526;44.600;26.032;2023-10-19T01:45:26;18.85;;;12.98;;
79122;SDS011;68526;44.600;26.032;2023-10-19T01:45:42;18.77;;;13.60;;
79122;SDS011;68526;44.600;26.032;2023-10-19T01:45:58;21.40;;;13.68;;
79122;SDS011;68526;44.600;26.032;2023-10-19T01:46:19;20.85;;;13.32;;
79122;SDS011;68526;44.600;26.032;2023-10-19T01:46:37;19.33;;;13.05;;
79122;SDS011;68526;44.600;26.032;2023-10-19T01:46:53;18.45;;;12.73;;
79122;SDS011;68526;44.600;26.032;2023-10-19T01:47:10;19.38;;;13.07;;
79122;SDS011;68526;44.600;26.032;2023-10-19T01:47:26;20.17;;;13.77;;
79122;SDS011;68526;44.600;26.032;2023-10-19T01:47:43;20.08;;;13.95;;
79122;SDS011;68526;44.600;26.032;2023-10-19T01:47:59;18.38;;;12.85;;
79122;SDS011;68526;44.600;26.032;2023-10-19T01:48:16;18.38;;;12.68;;
79122;SDS011;68526;44.600;26.032;2023-10-19T01:48:32;19.90;;;13.18;;
79122;SDS011;68526;44.600;26.032;2023-10-19T01:48:49;20.60;;;13.00;;
79122;SDS011;68526;44.600;26.032;2023-10-19T01:49:09;17.63;;;12.18;;
79122;SDS011;68526;44.600;26.032;2023-10-19T01:49:25;17.70;;;12.07;;
79122;SDS011;68526;44.600;26.032;2023-10-19T01:49:41;19.00;;;12.88;;
79122;SDS011;68526;44.600;26.032;2023-10-19T01:50:00;17.45;;;12.10;;
79122;SDS011;68526;44.600;26.032;2023-10-19T01:50:18;17.15;;;11.85;;